Aldenville, Pennsylvania
Current Conditions -  °F | °C
As of 5:55 AM on Monday 20 Oct 2014 (Local Time) from KMSV Reporting Station
Scattered Clouds Scattered Clouds  
Wind Chill: -4°   Ceiling: Unl
Heat Index: -1°   Visibility: 10mi
Dew Point: -3°   Wind: 5mph
Humidity: 86%   Direction: 240°WSW
Pressure: 30.04"   Gusts: NA
Location:  41.65°N, 75.36°W
Report Text: KMSV 200955Z AUTO 24004KT 10SM SCT120 M01/M03 A3004 RMK AO1
Loading
Personal Weather Stations






























Interactive Weather Map
Tropical Storm Tracking
New forecast layout! Learn more

10-Day Weather Forecast

Advertisements
Track Severe Weather on mobile